createdAt,value
2019-01-19T00:01:37.941Z,5.10
2019-01-19T00:07:23.112Z,5.10
2019-01-19T00:12:49.683Z,5.40
2019-01-19T00:18:15.815Z,5.10
2019-01-19T00:23:51.268Z,5.40
2019-01-19T00:29:21.092Z,5.20
2019-01-19T00:34:55.952Z,5.20
2019-01-19T00:40:46.021Z,5.20
2019-01-19T00:46:12.893Z,5.20
2019-01-19T00:51:38.257Z,5.20
2019-01-19T00:56:54.760Z,5.30
2019-01-19T01:02:24.063Z,5.20
2019-01-19T01:08:21.711Z,5.20
2019-01-19T01:13:56.127Z,5.20
2019-01-19T01:19:47.343Z,5.30
2019-01-19T01:25:18.028Z,5.10
2019-01-19T01:30:52.352Z,4.90
2019-01-19T01:36:46.159Z,5.00
2019-01-19T01:42:17.963Z,5.10
2019-01-19T01:48:02.363Z,5.00
2019-01-19T01:53:56.900Z,5.00
2019-01-19T01:59:35.599Z,5.00
2019-01-19T02:05:30.322Z,4.90
2019-01-19T02:11:12.316Z,5.00
2019-01-19T02:16:53.173Z,4.80
2019-01-19T02:22:14.760Z,4.90
2019-01-19T02:27:45.427Z,4.90
2019-01-19T02:33:28.503Z,4.90
2019-01-19T02:39:04.328Z,5.00
2019-01-19T02:44:46.803Z,4.80
2019-01-19T02:50:11.054Z,5.00
2019-01-19T02:56:08.977Z,5.00
2019-01-19T03:01:50.527Z,4.90
2019-01-19T03:07:53.627Z,4.90
2019-01-19T03:13:32.404Z,4.90
2019-01-19T03:18:53.782Z,4.80
2019-01-19T03:24:23.594Z,4.80
2019-01-19T03:30:14.624Z,4.90
2019-01-19T03:35:48.671Z,5.10
2019-01-19T03:41:46.132Z,4.80
2019-01-19T03:47:21.863Z,4.90
2019-01-19T03:53:09.140Z,4.60
2019-01-19T03:58:27.724Z,5.00
2019-01-19T04:04:22.347Z,4.80
2019-01-19T04:10:28.715Z,4.70
2019-01-19T04:16:19.140Z,4.80
2019-01-19T04:22:13.652Z,4.70
2019-01-19T04:27:17.616Z,4.60
2019-01-19T04:32:21.585Z,4.70
2019-01-19T04:37:26.612Z,4.70
2019-01-19T04:42:31.023Z,4.70
2019-01-19T04:47:34.916Z,4.70
2019-01-19T04:52:38.979Z,4.70
2019-01-19T04:57:44.316Z,4.70
2019-01-19T05:02:49.462Z,4.70
2019-01-19T05:07:53.483Z,4.70
2019-01-19T05:12:57.381Z,4.60
2019-01-19T05:18:01.629Z,4.80
2019-01-19T05:23:07.017Z,4.70
2019-01-19T05:28:11.063Z,4.60
2019-01-19T05:33:15.012Z,4.60
2019-01-19T05:38:19.088Z,4.60
2019-01-19T05:43:23.084Z,4.60
2019-01-19T05:48:27.009Z,4.60
2019-01-19T05:53:32.198Z,4.60
2019-01-19T05:58:36.540Z,4.60
2019-01-19T06:03:41.531Z,4.50
2019-01-19T06:08:45.555Z,4.60
2019-01-19T06:13:50.068Z,4.60
2019-01-19T06:18:54.541Z,4.70
2019-01-19T06:23:58.576Z,4.50
2019-01-19T06:29:02.614Z,4.50
2019-01-19T06:34:06.664Z,4.70
2019-01-19T06:39:10.707Z,4.60
2019-01-19T06:44:15.238Z,4.60
2019-01-19T06:49:19.205Z,4.50
2019-01-19T06:54:24.643Z,4.60
2019-01-19T06:59:28.560Z,4.60
2019-01-19T07:04:32.532Z,4.40
2019-01-19T07:09:36.816Z,4.40
2019-01-19T07:14:41.791Z,4.30
2019-01-19T07:19:45.843Z,4.60
2019-01-19T07:24:49.894Z,4.30
2019-01-19T07:29:53.963Z,4.70
2019-01-19T07:34:58.016Z,4.50
2019-01-19T07:40:02.096Z,4.60
2019-01-19T07:45:06.969Z,4.30
2019-01-19T07:50:14.521Z,4.60
2019-01-19T07:55:18.666Z,4.70
2019-01-19T08:00:25.562Z,4.30
2019-01-19T08:05:31.169Z,4.40
2019-01-19T08:10:39.484Z,4.40
2019-01-19T08:15:43.418Z,4.40
2019-01-19T08:20:47.387Z,4.30
2019-01-19T08:25:51.564Z,4.40
2019-01-19T08:30:55.654Z,4.40
2019-01-19T08:35:59.971Z,4.20
2019-01-19T08:41:04.028Z,4.30
2019-01-19T08:46:08.067Z,4.30
2019-01-19T08:51:15.759Z,4.10
2019-01-19T08:56:23.330Z,4.20
2019-01-19T09:01:27.456Z,4.40
2019-01-19T09:06:34.127Z,6.60
2019-01-19T09:11:38.237Z,5.20
2019-01-19T09:16:42.312Z,4.90
2019-01-19T09:21:46.321Z,4.90
2019-01-19T09:26:50.286Z,4.70
2019-01-19T09:31:54.226Z,4.60
2019-01-19T09:36:58.325Z,4.50
2019-01-19T09:42:02.286Z,4.70
2019-01-19T09:47:06.305Z,4.40
2019-01-19T09:52:10.387Z,4.30
2019-01-19T09:57:14.368Z,4.50
2019-01-19T10:02:18.352Z,4.40
2019-01-19T10:07:22.377Z,4.50
2019-01-19T10:12:26.432Z,4.40
2019-01-19T10:17:30.392Z,4.40
2019-01-19T10:22:34.363Z,4.40
2019-01-19T10:27:38.259Z,4.40
2019-01-19T10:32:42.123Z,4.40
2019-01-19T10:37:46.202Z,4.50
2019-01-19T10:42:50.251Z,4.40
2019-01-19T10:47:54.270Z,4.60
2019-01-19T10:52:58.299Z,4.30
2019-01-19T10:58:02.173Z,4.40
2019-01-19T11:03:06.188Z,4.40
2019-01-19T11:08:12.893Z,4.40
2019-01-19T11:13:16.871Z,4.70
2019-01-19T11:18:20.901Z,4.60
2019-01-19T11:23:24.836Z,4.60
2019-01-19T11:28:28.843Z,4.70
2019-01-19T11:33:32.772Z,4.60
2019-01-19T11:38:37.684Z,4.50
2019-01-19T11:43:42.095Z,4.60
2019-01-19T11:48:47.412Z,4.60
2019-01-19T11:53:51.418Z,4.70
2019-01-19T11:58:55.395Z,4.90
2019-01-19T12:03:59.391Z,4.60
2019-01-19T12:09:04.528Z,5.00
2019-01-19T12:14:08.574Z,4.90
2019-01-19T12:19:12.551Z,5.00
2019-01-19T12:24:17.428Z,4.80
2019-01-19T12:29:21.428Z,5.00
2019-01-19T12:34:25.391Z,4.90
2019-01-19T12:39:29.450Z,4.80
2019-01-19T12:44:33.463Z,5.00
2019-01-19T12:49:37.488Z,4.90
2019-01-19T12:54:41.430Z,5.00
2019-01-19T12:59:45.322Z,4.90
2019-01-19T13:04:49.272Z,4.90
2019-01-19T13:10:08.262Z,5.00
2019-01-19T13:15:23.593Z,4.90
2019-01-19T13:21:39.107Z,4.90
2019-01-19T13:27:18.188Z,4.90
2019-01-19T13:33:01.751Z,4.90
2019-01-19T13:38:58.812Z,5.00
2019-01-19T13:44:15.244Z,4.80
2019-01-19T13:49:49.347Z,4.90
2019-01-19T13:55:40.224Z,5.00
2019-01-19T14:01:18.635Z,4.80
2019-01-19T14:06:44.371Z,5.00
2019-01-19T14:12:38.588Z,5.00
2019-01-19T14:18:20.074Z,4.90
2019-01-19T14:24:11.145Z,5.00
2019-01-19T14:29:46.064Z,4.90
2019-01-19T14:35:31.182Z,4.80
2019-01-19T14:40:53.303Z,4.80
2019-01-19T14:46:44.316Z,4.90
2019-01-19T14:52:20.557Z,4.90
2019-01-19T14:57:45.831Z,4.90
2019-01-19T15:03:39.351Z,4.90
2019-01-19T15:09:03.977Z,5.00
2019-01-19T15:14:55.030Z,4.80
2019-01-19T15:20:37.483Z,4.80
2019-01-19T15:26:17.467Z,5.10
2019-01-19T15:31:48.403Z,4.90
2019-01-19T15:37:05.866Z,4.90
2019-01-19T15:42:45.102Z,5.00
2019-01-19T15:48:29.361Z,4.90
2019-01-19T15:53:53.935Z,4.90
2019-01-19T15:59:57.624Z,5.00
2019-01-19T16:05:36.707Z,5.20
2019-01-19T16:11:06.571Z,4.90
2019-01-19T16:16:37.260Z,5.20
2019-01-19T16:22:08.659Z,4.80
2019-01-19T16:27:47.884Z,4.90
2019-01-19T16:34:03.424Z,4.90
2019-01-19T16:39:44.878Z,4.90
2019-01-19T16:45:42.600Z,4.90
2019-01-19T16:51:30.324Z,4.90
2019-01-19T16:56:56.350Z,4.90
2019-01-19T17:02:43.871Z,4.90
2019-01-19T17:08:38.854Z,4.60
2019-01-19T17:14:11.934Z,4.70
2019-01-19T17:19:51.115Z,5.00
2019-01-19T17:25:21.135Z,4.80
2019-01-19T17:30:51.163Z,4.60
2019-01-19T17:36:25.336Z,4.70
2019-01-19T17:42:19.903Z,4.60
2019-01-19T17:47:30.911Z,4.70
2019-01-19T17:52:51.070Z,4.50
2019-01-19T17:58:20.919Z,4.60
2019-01-19T18:03:46.368Z,4.70
2019-01-19T18:09:15.169Z,4.60
2019-01-19T18:14:58.295Z,4.70
2019-01-19T18:20:49.203Z,4.60
2019-01-19T18:26:37.318Z,4.60
2019-01-19T18:32:22.603Z,4.70
2019-01-19T18:38:07.152Z,4.30
2019-01-19T18:43:34.765Z,4.50
2019-01-19T18:49:21.409Z,4.50
2019-01-19T18:54:54.304Z,4.40
2019-01-19T19:00:09.341Z,4.40
2019-01-19T19:05:56.159Z,4.40
2019-01-19T19:11:30.210Z,4.40
2019-01-19T19:17:14.355Z,4.40
2019-01-19T19:23:05.552Z,5.70
2019-01-19T19:28:47.952Z,8.50
2019-01-19T19:34:01.716Z,6.60
2019-01-19T19:39:18.919Z,5.50
2019-01-19T19:44:46.184Z,5.20
2019-01-19T19:50:01.406Z,5.20
2019-01-19T19:55:03.919Z,4.80
2019-01-19T20:00:09.271Z,5.00
2019-01-19T20:05:13.495Z,4.90
2019-01-19T20:10:17.546Z,4.90
2019-01-19T20:15:21.623Z,4.90
2019-01-19T20:20:25.752Z,4.70
2019-01-19T20:25:29.763Z,4.80
2019-01-19T20:30:33.825Z,4.60
2019-01-19T20:35:38.043Z,4.40
2019-01-19T20:40:41.991Z,4.70
2019-01-19T20:45:45.943Z,4.60
2019-01-19T20:50:49.888Z,4.60
2019-01-19T20:55:53.864Z,4.40
2019-01-19T21:00:57.827Z,4.40
2019-01-19T21:06:02.459Z,4.40
2019-01-19T21:11:07.351Z,4.40
2019-01-19T21:16:11.991Z,4.30
2019-01-19T21:21:16.020Z,4.20
2019-01-19T21:26:19.971Z,4.40
2019-01-19T21:31:23.996Z,4.30
2019-01-19T21:36:27.951Z,4.40
2019-01-19T21:41:31.832Z,4.30
2019-01-19T21:46:35.706Z,4.20
2019-01-19T21:51:39.734Z,4.10
2019-01-19T21:56:43.698Z,4.00
2019-01-19T22:01:47.755Z,4.40
2019-01-19T22:06:51.779Z,4.40
2019-01-19T22:11:55.731Z,4.10
2019-01-19T22:16:59.611Z,4.20
2019-01-19T22:22:03.554Z,4.20
2019-01-19T22:27:07.986Z,4.10
2019-01-19T22:32:11.859Z,4.10
2019-01-19T22:37:15.775Z,3.90
2019-01-19T22:42:19.691Z,4.10
2019-01-19T22:47:23.663Z,4.10
2019-01-19T22:52:27.623Z,3.80
2019-01-19T22:57:31.531Z,4.00
2019-01-19T23:02:35.427Z,4.10
2019-01-19T23:07:39.651Z,4.20
2019-01-19T23:12:44.439Z,4.10
2019-01-19T23:17:48.609Z,3.70
2019-01-19T23:22:52.586Z,3.80
2019-01-19T23:27:56.561Z,3.80
2019-01-19T23:33:01.233Z,3.90
2019-01-19T23:38:05.424Z,3.90
2019-01-19T23:43:09.513Z,3.90
2019-01-19T23:48:13.623Z,3.90
2019-01-19T23:53:17.584Z,3.80
2019-01-19T23:58:21.668Z,3.90
